sensor_id;sensor_type;location;lat;lon;timestamp;P1;durP1;ratioP1;P2;durP2;ratioP2
11191;SDS011;5652;48.406;10.820;2023-02-18T00:00:06;3.67;;;1.40;;
11191;SDS011;5652;48.406;10.820;2023-02-18T00:02:33;0.95;;;0.90;;
11191;SDS011;5652;48.406;10.820;2023-02-18T00:05:06;2.45;;;1.40;;
11191;SDS011;5652;48.406;10.820;2023-02-18T00:07:35;1.90;;;1.30;;
11191;SDS011;5652;48.406;10.820;2023-02-18T00:10:03;1.40;;;1.30;;
11191;SDS011;5652;48.406;10.820;2023-02-18T00:12:30;1.70;;;1.20;;
11191;SDS011;5652;48.406;10.820;2023-02-18T00:14:57;2.00;;;1.40;;
11191;SDS011;5652;48.406;10.820;2023-02-18T00:17:25;1.30;;;1.20;;
11191;SDS011;5652;48.406;10.820;2023-02-18T00:19:52;1.50;;;1.40;;
11191;SDS011;5652;48.406;10.820;2023-02-18T00:22:19;1.30;;;1.20;;
11191;SDS011;5652;48.406;10.820;2023-02-18T00:24:48;1.75;;;1.15;;
11191;SDS011;5652;48.406;10.820;2023-02-18T00:27:15;0.90;;;0.90;;
11191;SDS011;5652;48.406;10.820;2023-02-18T00:29:42;2.30;;;1.42;;
11191;SDS011;5652;48.406;10.820;2023-02-18T00:32:09;1.60;;;1.00;;
11191;SDS011;5652;48.406;10.820;2023-02-18T00:34:36;1.30;;;1.02;;
11191;SDS011;5652;48.406;10.820;2023-02-18T00:37:03;1.23;;;1.00;;
11191;SDS011;5652;48.406;10.820;2023-02-18T00:39:30;1.00;;;0.90;;
11191;SDS011;5652;48.406;10.820;2023-02-18T00:41:59;1.33;;;1.23;;
11191;SDS011;5652;48.406;10.820;2023-02-18T00:44:26;4.18;;;1.40;;
11191;SDS011;5652;48.406;10.820;2023-02-18T00:46:53;1.50;;;1.30;;
11191;SDS011;5652;48.406;10.820;2023-02-18T00:49:20;1.63;;;1.10;;
11191;SDS011;5652;48.406;10.820;2023-02-18T00:51:47;1.63;;;1.10;;
11191;SDS011;5652;48.406;10.820;2023-02-18T00:54:14;1.60;;;1.40;;
11191;SDS011;5652;48.406;10.820;2023-02-18T00:56:41;1.95;;;1.40;;
11191;SDS011;5652;48.406;10.820;2023-02-18T00:59:10;3.67;;;1.08;;
11191;SDS011;5652;48.406;10.820;2023-02-18T01:01:37;1.13;;;1.00;;
11191;SDS011;5652;48.406;10.820;2023-02-18T01:04:06;1.30;;;1.10;;
11191;SDS011;5652;48.406;10.820;2023-02-18T01:06:33;0.98;;;0.95;;
11191;SDS011;5652;48.406;10.820;2023-02-18T01:09:00;0.93;;;0.90;;
11191;SDS011;5652;48.406;10.820;2023-02-18T01:11:27;0.93;;;0.87;;
11191;SDS011;5652;48.406;10.820;2023-02-18T01:13:54;1.23;;;1.08;;
11191;SDS011;5652;48.406;10.820;2023-02-18T01:16:23;1.80;;;1.02;;
11191;SDS011;5652;48.406;10.820;2023-02-18T01:18:50;2.25;;;1.10;;
11191;SDS011;5652;48.406;10.820;2023-02-18T01:21:17;0.80;;;0.80;;
11191;SDS011;5652;48.406;10.820;2023-02-18T01:23:44;1.80;;;1.10;;
11191;SDS011;5652;48.406;10.820;2023-02-18T01:26:11;2.17;;;1.23;;
11191;SDS011;5652;48.406;10.820;2023-02-18T01:28:39;1.77;;;0.93;;
11191;SDS011;5652;48.406;10.820;2023-02-18T01:31:07;1.88;;;1.05;;
11191;SDS011;5652;48.406;10.820;2023-02-18T01:33:35;2.80;;;1.20;;
11191;SDS011;5652;48.406;10.820;2023-02-18T01:36:03;1.20;;;1.10;;
11191;SDS011;5652;48.406;10.820;2023-02-18T01:38:30;1.85;;;1.45;;
11191;SDS011;5652;48.406;10.820;2023-02-18T01:40:57;2.30;;;1.30;;
11191;SDS011;5652;48.406;10.820;2023-02-18T01:43:25;1.90;;;1.30;;
11191;SDS011;5652;48.406;10.820;2023-02-18T01:46:06;1.20;;;1.10;;
11191;SDS011;5652;48.406;10.820;2023-02-18T01:48:36;1.80;;;1.30;;
11191;SDS011;5652;48.406;10.820;2023-02-18T01:51:06;2.40;;;1.27;;
11191;SDS011;5652;48.406;10.820;2023-02-18T01:53:38;2.60;;;1.33;;
11191;SDS011;5652;48.406;10.820;2023-02-18T01:56:08;3.05;;;1.48;;
11191;SDS011;5652;48.406;10.820;2023-02-18T01:58:37;1.02;;;0.98;;
11191;SDS011;5652;48.406;10.820;2023-02-18T02:01:04;1.73;;;1.20;;
11191;SDS011;5652;48.406;10.820;2023-02-18T02:03:31;1.42;;;0.95;;
11191;SDS011;5652;48.406;10.820;2023-02-18T02:06:00;1.40;;;1.10;;
11191;SDS011;5652;48.406;10.820;2023-02-18T02:08:27;1.48;;;1.35;;
11191;SDS011;5652;48.406;10.820;2023-02-18T02:11:06;2.08;;;1.23;;
11191;SDS011;5652;48.406;10.820;2023-02-18T02:13:43;1.55;;;1.20;;
11191;SDS011;5652;48.406;10.820;2023-02-18T02:16:17;1.50;;;1.30;;
11191;SDS011;5652;48.406;10.820;2023-02-18T02:18:50;2.10;;;1.20;;
11191;SDS011;5652;48.406;10.820;2023-02-18T02:21:31;2.15;;;1.33;;
11191;SDS011;5652;48.406;10.820;2023-02-18T02:24:12;1.20;;;1.10;;
11191;SDS011;5652;48.406;10.820;2023-02-18T02:32:12;1.67;;;1.20;;
11191;SDS011;5652;48.406;10.820;2023-02-18T02:34:54;1.17;;;1.00;;
11191;SDS011;5652;48.406;10.820;2023-02-18T02:37:25;1.40;;;1.30;;
11191;SDS011;5652;48.406;10.820;2023-02-18T02:39:56;2.67;;;1.33;;
11191;SDS011;5652;48.406;10.820;2023-02-18T02:42:29;1.47;;;1.10;;
11191;SDS011;5652;48.406;10.820;2023-02-18T02:45:02;1.30;;;1.20;;
11191;SDS011;5652;48.406;10.820;2023-02-18T02:47:31;1.50;;;1.30;;
11191;SDS011;5652;48.406;10.820;2023-02-18T02:50:05;2.55;;;1.45;;
11191;SDS011;5652;48.406;10.820;2023-02-18T02:52:36;1.88;;;1.48;;
11191;SDS011;5652;48.406;10.820;2023-02-18T02:55:07;1.42;;;1.13;;
11191;SDS011;5652;48.406;10.820;2023-02-18T02:57:42;4.05;;;1.20;;
11191;SDS011;5652;48.406;10.820;2023-02-18T03:00:10;1.40;;;1.30;;
11191;SDS011;5652;48.406;10.820;2023-02-18T03:02:40;1.15;;;1.05;;
11191;SDS011;5652;48.406;10.820;2023-02-18T03:05:16;3.35;;;1.60;;
11191;SDS011;5652;48.406;10.820;2023-02-18T03:10:31;1.60;;;1.40;;
11191;SDS011;5652;48.406;10.820;2023-02-18T03:13:03;1.52;;;1.20;;
11191;SDS011;5652;48.406;10.820;2023-02-18T03:15:34;1.40;;;1.10;;
11191;SDS011;5652;48.406;10.820;2023-02-18T03:18:06;2.88;;;1.30;;
11191;SDS011;5652;48.406;10.820;2023-02-18T03:20:36;2.08;;;1.55;;
11191;SDS011;5652;48.406;10.820;2023-02-18T03:23:07;1.58;;;1.10;;
11191;SDS011;5652;48.406;10.820;2023-02-18T03:25:37;2.55;;;1.40;;
11191;SDS011;5652;48.406;10.820;2023-02-18T03:28:05;2.00;;;1.20;;
11191;SDS011;5652;48.406;10.820;2023-02-18T03:30:36;1.35;;;1.00;;
11191;SDS011;5652;48.406;10.820;2023-02-18T03:33:07;1.70;;;1.10;;
11191;SDS011;5652;48.406;10.820;2023-02-18T03:35:37;1.40;;;1.00;;
11191;SDS011;5652;48.406;10.820;2023-02-18T03:38:05;1.30;;;1.20;;
11191;SDS011;5652;48.406;10.820;2023-02-18T03:40:35;2.33;;;1.00;;
11191;SDS011;5652;48.406;10.820;2023-02-18T03:43:02;1.63;;;1.00;;
11191;SDS011;5652;48.406;10.820;2023-02-18T03:45:29;1.92;;;1.45;;
11191;SDS011;5652;48.406;10.820;2023-02-18T03:47:56;1.20;;;1.10;;
11191;SDS011;5652;48.406;10.820;2023-02-18T03:50:23;2.25;;;0.93;;
11191;SDS011;5652;48.406;10.820;2023-02-18T03:52:52;2.08;;;1.38;;
11191;SDS011;5652;48.406;10.820;2023-02-18T03:55:19;2.28;;;1.23;;
11191;SDS011;5652;48.406;10.820;2023-02-18T03:57:46;1.40;;;1.20;;
11191;SDS011;5652;48.406;10.820;2023-02-18T04:00:13;1.33;;;1.17;;
11191;SDS011;5652;48.406;10.820;2023-02-18T04:02:41;2.35;;;1.30;;
11191;SDS011;5652;48.406;10.820;2023-02-18T04:05:08;1.30;;;1.10;;
11191;SDS011;5652;48.406;10.820;2023-02-18T04:07:35;1.20;;;1.10;;
11191;SDS011;5652;48.406;10.820;2023-02-18T04:10:04;1.25;;;1.15;;
11191;SDS011;5652;48.406;10.820;2023-02-18T04:12:32;1.73;;;1.33;;
11191;SDS011;5652;48.406;10.820;2023-02-18T04:14:59;1.23;;;1.00;;
11191;SDS011;5652;48.406;10.820;2023-02-18T04:17:27;1.38;;;1.20;;
11191;SDS011;5652;48.406;10.820;2023-02-18T04:19:54;1.45;;;1.10;;
11191;SDS011;5652;48.406;10.820;2023-02-18T04:22:22;1.63;;;1.35;;
11191;SDS011;5652;48.406;10.820;2023-02-18T04:24:49;2.73;;;1.07;;
11191;SDS011;5652;48.406;10.820;2023-02-18T04:27:17;0.90;;;0.90;;
11191;SDS011;5652;48.406;10.820;2023-02-18T04:29:44;1.13;;;1.02;;
11191;SDS011;5652;48.406;10.820;2023-02-18T04:32:11;1.48;;;1.17;;
11191;SDS011;5652;48.406;10.820;2023-02-18T04:34:39;1.20;;;1.05;;
11191;SDS011;5652;48.406;10.820;2023-02-18T04:37:06;1.23;;;1.13;;
11191;SDS011;5652;48.406;10.820;2023-02-18T04:39:33;1.38;;;1.27;;
11191;SDS011;5652;48.406;10.820;2023-02-18T04:42:00;1.20;;;1.10;;
11191;SDS011;5652;48.406;10.820;2023-02-18T04:44:34;1.20;;;1.10;;
11191;SDS011;5652;48.406;10.820;2023-02-18T04:47:01;1.88;;;1.20;;
11191;SDS011;5652;48.406;10.820;2023-02-18T04:49:28;2.08;;;1.33;;
11191;SDS011;5652;48.406;10.820;2023-02-18T04:51:55;1.17;;;1.00;;
11191;SDS011;5652;48.406;10.820;2023-02-18T04:54:22;0.95;;;0.95;;
11191;SDS011;5652;48.406;10.820;2023-02-18T04:56:49;1.30;;;1.13;;
11191;SDS011;5652;48.406;10.820;2023-02-18T04:59:17;1.67;;;1.10;;
11191;SDS011;5652;48.406;10.820;2023-02-18T05:01:45;2.17;;;1.30;;
11191;SDS011;5652;48.406;10.820;2023-02-18T05:04:12;1.30;;;1.20;;
11191;SDS011;5652;48.406;10.820;2023-02-18T05:06:41;0.80;;;0.80;;
11191;SDS011;5652;48.406;10.820;2023-02-18T05:09:08;1.10;;;1.00;;
11191;SDS011;5652;48.406;10.820;2023-02-18T05:11:35;1.15;;;0.95;;
11191;SDS011;5652;48.406;10.820;2023-02-18T05:14:02;1.30;;;1.10;;
11191;SDS011;5652;48.406;10.820;2023-02-18T05:16:30;1.50;;;1.00;;
11191;SDS011;5652;48.406;10.820;2023-02-18T05:18:58;1.23;;;0.95;;
11191;SDS011;5652;48.406;10.820;2023-02-18T05:21:25;1.58;;;1.00;;
11191;SDS011;5652;48.406;10.820;2023-02-18T05:23:52;1.17;;;1.08;;
11191;SDS011;5652;48.406;10.820;2023-02-18T05:26:19;0.95;;;0.90;;
11191;SDS011;5652;48.406;10.820;2023-02-18T05:28:46;1.10;;;1.00;;
11191;SDS011;5652;48.406;10.820;2023-02-18T05:31:14;1.00;;;0.82;;
11191;SDS011;5652;48.406;10.820;2023-02-18T05:33:41;1.10;;;1.00;;
11191;SDS011;5652;48.406;10.820;2023-02-18T05:36:09;1.08;;;0.75;;
11191;SDS011;5652;48.406;10.820;2023-02-18T05:38:36;1.35;;;1.13;;
11191;SDS011;5652;48.406;10.820;2023-02-18T05:41:03;0.80;;;0.80;;
11191;SDS011;5652;48.406;10.820;2023-02-18T05:43:31;2.80;;;1.20;;
11191;SDS011;5652;48.406;10.820;2023-02-18T05:46:19;1.08;;;0.98;;
11191;SDS011;5652;48.406;10.820;2023-02-18T05:48:46;1.50;;;1.17;;
11191;SDS011;5652;48.406;10.820;2023-02-18T05:51:15;0.80;;;0.80;;
11191;SDS011;5652;48.406;10.820;2023-02-18T05:53:42;1.13;;;0.90;;
11191;SDS011;5652;48.406;10.820;2023-02-18T05:56:09;0.80;;;0.80;;
11191;SDS011;5652;48.406;10.820;2023-02-18T05:58:36;1.15;;;1.08;;
11191;SDS011;5652;48.406;10.820;2023-02-18T06:01:03;1.15;;;0.90;;
11191;SDS011;5652;48.406;10.820;2023-02-18T06:03:30;1.10;;;1.00;;
11191;SDS011;5652;48.406;10.820;2023-02-18T06:05:57;1.17;;;1.08;;
11191;SDS011;5652;48.406;10.820;2023-02-18T06:08:27;1.10;;;1.00;;
11191;SDS011;5652;48.406;10.820;2023-02-18T06:10:54;1.45;;;1.35;;
11191;SDS011;5652;48.406;10.820;2023-02-18T06:13:21;1.73;;;1.10;;
11191;SDS011;5652;48.406;10.820;2023-02-18T06:15:50;1.05;;;0.93;;
11191;SDS011;5652;48.406;10.820;2023-02-18T06:18:17;1.05;;;0.95;;
11191;SDS011;5652;48.406;10.820;2023-02-18T06:20:45;1.15;;;0.93;;
11191;SDS011;5652;48.406;10.820;2023-02-18T06:23:12;1.30;;;1.20;;
11191;SDS011;5652;48.406;10.820;2023-02-18T06:25:41;1.50;;;1.00;;
11191;SDS011;5652;48.406;10.820;2023-02-18T06:28:08;1.27;;;1.17;;
11191;SDS011;5652;48.406;10.820;2023-02-18T06:30:35;1.13;;;1.02;;
11191;SDS011;5652;48.406;10.820;2023-02-18T06:33:02;1.88;;;1.27;;
11191;SDS011;5652;48.406;10.820;2023-02-18T06:35:29;1.13;;;1.00;;
11191;SDS011;5652;48.406;10.820;2023-02-18T06:37:57;1.17;;;1.08;;
11191;SDS011;5652;48.406;10.820;2023-02-18T06:40:24;1.52;;;1.20;;
11191;SDS011;5652;48.406;10.820;2023-02-18T06:42:53;1.33;;;1.10;;
11191;SDS011;5652;48.406;10.820;2023-02-18T06:45:20;1.38;;;1.20;;
11191;SDS011;5652;48.406;10.820;2023-02-18T06:47:47;1.27;;;1.08;;
11191;SDS011;5652;48.406;10.820;2023-02-18T06:50:14;1.10;;;1.00;;
11191;SDS011;5652;48.406;10.820;2023-02-18T06:52:43;1.30;;;1.20;;
11191;SDS011;5652;48.406;10.820;2023-02-18T06:55:12;1.40;;;1.30;;
11191;SDS011;5652;48.406;10.820;2023-02-18T06:57:39;1.58;;;1.20;;
11191;SDS011;5652;48.406;10.820;2023-02-18T07:00:08;2.25;;;1.30;;
11191;SDS011;5652;48.406;10.820;2023-02-18T07:02:35;1.30;;;1.20;;
11191;SDS011;5652;48.406;10.820;2023-02-18T07:05:03;1.40;;;1.20;;
11191;SDS011;5652;48.406;10.820;2023-02-18T07:07:30;1.10;;;0.95;;
11191;SDS011;5652;48.406;10.820;2023-02-18T07:09:57;1.25;;;1.10;;
11191;SDS011;5652;48.406;10.820;2023-02-18T07:12:25;1.10;;;1.00;;
11191;SDS011;5652;48.406;10.820;2023-02-18T07:14:52;1.50;;;0.90;;
11191;SDS011;5652;48.406;10.820;2023-02-18T07:17:20;1.50;;;1.20;;
11191;SDS011;5652;48.406;10.820;2023-02-18T07:19:48;1.20;;;1.10;;
11191;SDS011;5652;48.406;10.820;2023-02-18T07:22:15;1.25;;;1.00;;
11191;SDS011;5652;48.406;10.820;2023-02-18T07:24:42;1.95;;;1.10;;
11191;SDS011;5652;48.406;10.820;2023-02-18T07:27:09;0.80;;;0.80;;
11191;SDS011;5652;48.406;10.820;2023-02-18T07:29:36;2.05;;;1.10;;
11191;SDS011;5652;48.406;10.820;2023-02-18T07:32:04;1.90;;;1.65;;
11191;SDS011;5652;48.406;10.820;2023-02-18T07:34:32;1.52;;;1.10;;
11191;SDS011;5652;48.406;10.820;2023-02-18T07:36:59;1.10;;;0.90;;
11191;SDS011;5652;48.406;10.820;2023-02-18T07:39:26;1.20;;;1.10;;
11191;SDS011;5652;48.406;10.820;2023-02-18T07:41:54;0.98;;;0.90;;
11191;SDS011;5652;48.406;10.820;2023-02-18T07:44:21;1.48;;;1.17;;
11191;SDS011;5652;48.406;10.820;2023-02-18T07:46:50;0.90;;;0.90;;
11191;SDS011;5652;48.406;10.820;2023-02-18T07:49:18;1.00;;;0.90;;
11191;SDS011;5652;48.406;10.820;2023-02-18T07:51:47;0.90;;;0.90;;
11191;SDS011;5652;48.406;10.820;2023-02-18T07:54:14;1.35;;;1.10;;
11191;SDS011;5652;48.406;10.820;2023-02-18T07:56:42;1.02;;;0.93;;
11191;SDS011;5652;48.406;10.820;2023-02-18T07:59:09;0.93;;;0.88;;
11191;SDS011;5652;48.406;10.820;2023-02-18T08:01:36;1.13;;;1.02;;
11191;SDS011;5652;48.406;10.820;2023-02-18T08:04:04;1.00;;;1.00;;
11191;SDS011;5652;48.406;10.820;2023-02-18T08:06:32;1.02;;;0.93;;
11191;SDS011;5652;48.406;10.820;2023-02-18T08:09:01;1.55;;;1.00;;
11191;SDS011;5652;48.406;10.820;2023-02-18T08:11:28;0.77;;;0.77;;
11191;SDS011;5652;48.406;10.820;2023-02-18T08:13:55;0.70;;;0.70;;
11191;SDS011;5652;48.406;10.820;2023-02-18T08:16:22;1.05;;;0.93;;
11191;SDS011;5652;48.406;10.820;2023-02-18T08:18:50;1.33;;;1.00;;
11191;SDS011;5652;48.406;10.820;2023-02-18T08:21:18;0.80;;;0.73;;
11191;SDS011;5652;48.406;10.820;2023-02-18T08:23:45;0.80;;;0.80;;
11191;SDS011;5652;48.406;10.820;2023-02-18T08:26:14;0.73;;;0.73;;
11191;SDS011;5652;48.406;10.820;2023-02-18T08:28:41;1.17;;;1.00;;
11191;SDS011;5652;48.406;10.820;2023-02-18T08:31:13;0.80;;;0.80;;
11191;SDS011;5652;48.406;10.820;2023-02-18T08:33:41;1.67;;;0.95;;
11191;SDS011;5652;48.406;10.820;2023-02-18T08:36:08;0.80;;;0.80;;
11191;SDS011;5652;48.406;10.820;2023-02-18T08:38:36;0.70;;;0.70;;
11191;SDS011;5652;48.406;10.820;2023-02-18T08:41:04;0.70;;;0.70;;
11191;SDS011;5652;48.406;10.820;2023-02-18T08:43:33;1.40;;;1.23;;
11191;SDS011;5652;48.406;10.820;2023-02-18T08:46:01;1.30;;;0.90;;
11191;SDS011;5652;48.406;10.820;2023-02-18T08:48:28;0.97;;;0.93;;
11191;SDS011;5652;48.406;10.820;2023-02-18T08:50:56;2.10;;;1.08;;
11191;SDS011;5652;48.406;10.820;2023-02-18T08:53:23;1.60;;;1.00;;
11191;SDS011;5652;48.406;10.820;2023-02-18T08:55:50;1.15;;;1.00;;
11191;SDS011;5652;48.406;10.820;2023-02-18T08:58:18;2.95;;;0.90;;
11191;SDS011;5652;48.406;10.820;2023-02-18T09:00:46;0.80;;;0.80;;
11191;SDS011;5652;48.406;10.820;2023-02-18T09:03:16;0.80;;;0.80;;
11191;SDS011;5652;48.406;10.820;2023-02-18T09:05:47;0.65;;;0.65;;
11191;SDS011;5652;48.406;10.820;2023-02-18T09:08:14;0.70;;;0.70;;
11191;SDS011;5652;48.406;10.820;2023-02-18T09:10:42;1.00;;;1.00;;
11191;SDS011;5652;48.406;10.820;2023-02-18T09:13:09;0.80;;;0.80;;
11191;SDS011;5652;48.406;10.820;2023-02-18T09:15:36;0.65;;;0.65;;
11191;SDS011;5652;48.406;10.820;2023-02-18T09:18:28;0.80;;;0.77;;
11191;SDS011;5652;48.406;10.820;2023-02-18T09:20:55;0.88;;;0.60;;
11191;SDS011;5652;48.406;10.820;2023-02-18T09:23:23;0.80;;;0.80;;
11191;SDS011;5652;48.406;10.820;2023-02-18T09:25:50;0.60;;;0.60;;
11191;SDS011;5652;48.406;10.820;2023-02-18T09:28:17;0.60;;;0.60;;
11191;SDS011;5652;48.406;10.820;2023-02-18T09:30:44;0.70;;;0.70;;
11191;SDS011;5652;48.406;10.820;2023-02-18T09:33:11;0.60;;;0.60;;
11191;SDS011;5652;48.406;10.820;2023-02-18T09:35:40;0.70;;;0.70;;
11191;SDS011;5652;48.406;10.820;2023-02-18T09:38:07;0.82;;;0.70;;
11191;SDS011;5652;48.406;10.820;2023-02-18T09:40:36;0.50;;;0.50;;
11191;SDS011;5652;48.406;10.820;2023-02-18T09:43:04;1.05;;;0.73;;
11191;SDS011;5652;48.406;10.820;2023-02-18T09:45:31;0.70;;;0.70;;
11191;SDS011;5652;48.406;10.820;2023-02-18T09:47:59;0.65;;;0.65;;
11191;SDS011;5652;48.406;10.820;2023-02-18T09:50:27;0.70;;;0.70;;
11191;SDS011;5652;48.406;10.820;2023-02-18T09:52:58;0.90;;;0.77;;
11191;SDS011;5652;48.406;10.820;2023-02-18T09:55:26;0.93;;;0.70;;
11191;SDS011;5652;48.406;10.820;2023-02-18T09:57:55;0.35;;;0.35;;
11191;SDS011;5652;48.406;10.820;2023-02-18T10:00:24;1.30;;;0.60;;
11191;SDS011;5652;48.406;10.820;2023-02-18T10:02:55;0.83;;;0.63;;
11191;SDS011;5652;48.406;10.820;2023-02-18T10:05:23;0.40;;;0.40;;
11191;SDS011;5652;48.406;10.820;2023-02-18T10:07:52;0.82;;;0.70;;
11191;SDS011;5652;48.406;10.820;2023-02-18T10:10:23;1.10;;;0.70;;
11191;SDS011;5652;48.406;10.820;2023-02-18T10:12:53;1.10;;;0.70;;
11191;SDS011;5652;48.406;10.820;2023-02-18T10:15:22;0.57;;;0.57;;
11191;SDS011;5652;48.406;10.820;2023-02-18T10:17:50;0.73;;;0.70;;
11191;SDS011;5652;48.406;10.820;2023-02-18T10:20:19;0.57;;;0.57;;
11191;SDS011;5652;48.406;10.820;2023-02-18T10:22:48;0.60;;;0.60;;
11191;SDS011;5652;48.406;10.820;2023-02-18T10:25:16;0.70;;;0.70;;
11191;SDS011;5652;48.406;10.820;2023-02-18T10:27:46;0.60;;;0.60;;
11191;SDS011;5652;48.406;10.820;2023-02-18T10:30:16;1.65;;;0.80;;
11191;SDS011;5652;48.406;10.820;2023-02-18T10:32:46;0.68;;;0.68;;
11191;SDS011;5652;48.406;10.820;2023-02-18T10:35:14;0.55;;;0.55;;
11191;SDS011;5652;48.406;10.820;2023-02-18T10:37:49;0.60;;;0.60;;
11191;SDS011;5652;48.406;10.820;2023-02-18T10:40:20;0.80;;;0.80;;
11191;SDS011;5652;48.406;10.820;2023-02-18T10:42:54;1.02;;;0.82;;
11191;SDS011;5652;48.406;10.820;2023-02-18T10:45:27;0.60;;;0.60;;
11191;SDS011;5652;48.406;10.820;2023-02-18T10:47:59;0.63;;;0.60;;
11191;SDS011;5652;48.406;10.820;2023-02-18T10:50:29;0.97;;;0.80;;
11191;SDS011;5652;48.406;10.820;2023-02-18T10:52:59;1.20;;;0.90;;
11191;SDS011;5652;48.406;10.820;2023-02-18T10:55:34;0.55;;;0.55;;
11191;SDS011;5652;48.406;10.820;2023-02-18T10:58:02;1.20;;;0.82;;
11191;SDS011;5652;48.406;10.820;2023-02-18T11:00:33;0.90;;;0.70;;
11191;SDS011;5652;48.406;10.820;2023-02-18T11:03:01;1.17;;;0.77;;
11191;SDS011;5652;48.406;10.820;2023-02-18T11:05:30;0.70;;;0.70;;
11191;SDS011;5652;48.406;10.820;2023-02-18T11:08:01;0.75;;;0.70;;
11191;SDS011;5652;48.406;10.820;2023-02-18T11:10:33;0.95;;;0.80;;
11191;SDS011;5652;48.406;10.820;2023-02-18T11:13:04;0.85;;;0.80;;
11191;SDS011;5652;48.406;10.820;2023-02-18T11:15:31;1.98;;;1.02;;
11191;SDS011;5652;48.406;10.820;2023-02-18T11:18:10;0.88;;;0.88;;
11191;SDS011;5652;48.406;10.820;2023-02-18T11:20:37;1.67;;;0.70;;
11191;SDS011;5652;48.406;10.820;2023-02-18T11:25:54;1.00;;;0.70;;
11191;SDS011;5652;48.406;10.820;2023-02-18T11:28:27;0.70;;;0.70;;
11191;SDS011;5652;48.406;10.820;2023-02-18T11:30:55;0.77;;;0.75;;
11191;SDS011;5652;48.406;10.820;2023-02-18T11:33:25;1.88;;;0.85;;
11191;SDS011;5652;48.406;10.820;2023-02-18T11:35:56;2.05;;;0.98;;
11191;SDS011;5652;48.406;10.820;2023-02-18T11:38:24;1.10;;;0.90;;
11191;SDS011;5652;48.406;10.820;2023-02-18T11:40:52;2.10;;;0.70;;
11191;SDS011;5652;48.406;10.820;2023-02-18T11:43:20;0.68;;;0.68;;
11191;SDS011;5652;48.406;10.820;2023-02-18T11:45:49;0.60;;;0.60;;
11191;SDS011;5652;48.406;10.820;2023-02-18T11:48:34;1.10;;;0.80;;
11191;SDS011;5652;48.406;10.820;2023-02-18T11:51:01;0.82;;;0.82;;
11191;SDS011;5652;48.406;10.820;2023-02-18T11:53:29;0.95;;;0.80;;
11191;SDS011;5652;48.406;10.820;2023-02-18T11:55:57;3.03;;;0.77;;
11191;SDS011;5652;48.406;10.820;2023-02-18T11:58:25;0.90;;;0.80;;
11191;SDS011;5652;48.406;10.820;2023-02-18T12:00:54;0.60;;;0.60;;
11191;SDS011;5652;48.406;10.820;2023-02-18T12:03:26;1.50;;;0.87;;
11191;SDS011;5652;48.406;10.820;2023-02-18T12:05:55;0.70;;;0.70;;
11191;SDS011;5652;48.406;10.820;2023-02-18T12:08:23;0.80;;;0.60;;
11191;SDS011;5652;48.406;10.820;2023-02-18T12:10:51;1.30;;;0.80;;
11191;SDS011;5652;48.406;10.820;2023-02-18T12:13:23;0.75;;;0.75;;
11191;SDS011;5652;48.406;10.820;2023-02-18T12:15:57;0.70;;;0.70;;
11191;SDS011;5652;48.406;10.820;2023-02-18T12:18:31;1.20;;;0.50;;
11191;SDS011;5652;48.406;10.820;2023-02-18T12:23:45;0.70;;;0.70;;
11191;SDS011;5652;48.406;10.820;2023-02-18T12:26:19;1.17;;;0.93;;
11191;SDS011;5652;48.406;10.820;2023-02-18T12:28:51;0.80;;;0.80;;
11191;SDS011;5652;48.406;10.820;2023-02-18T12:31:26;0.75;;;0.73;;
11191;SDS011;5652;48.406;10.820;2023-02-18T12:34:00;0.60;;;0.60;;
11191;SDS011;5652;48.406;10.820;2023-02-18T12:36:36;0.85;;;0.80;;
11191;SDS011;5652;48.406;10.820;2023-02-18T12:39:10;0.73;;;0.70;;
11191;SDS011;5652;48.406;10.820;2023-02-18T12:41:40;1.30;;;0.80;;
11191;SDS011;5652;48.406;10.820;2023-02-18T12:44:16;1.80;;;0.73;;
11191;SDS011;5652;48.406;10.820;2023-02-18T12:46:56;0.70;;;0.70;;
11191;SDS011;5652;48.406;10.820;2023-02-18T12:52:16;0.70;;;0.70;;
11191;SDS011;5652;48.406;10.820;2023-02-18T12:54:59;1.57;;;0.70;;
11191;SDS011;5652;48.406;10.820;2023-02-18T12:57:34;0.80;;;0.80;;
11191;SDS011;5652;48.406;10.820;2023-02-18T13:00:08;1.13;;;0.90;;
11191;SDS011;5652;48.406;10.820;2023-02-18T13:05:35;1.35;;;0.80;;
11191;SDS011;5652;48.406;10.820;2023-02-18T13:08:07;0.93;;;0.90;;
11191;SDS011;5652;48.406;10.820;2023-02-18T13:10:43;0.70;;;0.70;;
11191;SDS011;5652;48.406;10.820;2023-02-18T13:13:15;0.70;;;0.70;;
11191;SDS011;5652;48.406;10.820;2023-02-18T13:15:44;0.63;;;0.63;;
11191;SDS011;5652;48.406;10.820;2023-02-18T13:18:17;0.60;;;0.60;;
11191;SDS011;5652;48.406;10.820;2023-02-18T13:20:48;0.70;;;0.70;;
11191;SDS011;5652;48.406;10.820;2023-02-18T13:23:17;0.70;;;0.70;;
11191;SDS011;5652;48.406;10.820;2023-02-18T13:25:44;0.95;;;0.80;;
11191;SDS011;5652;48.406;10.820;2023-02-18T13:28:14;0.77;;;0.77;;
11191;SDS011;5652;48.406;10.820;2023-02-18T13:30:44;0.95;;;0.70;;
11191;SDS011;5652;48.406;10.820;2023-02-18T13:33:14;0.55;;;0.52;;
11191;SDS011;5652;48.406;10.820;2023-02-18T13:35:44;0.65;;;0.65;;
11191;SDS011;5652;48.406;10.820;2023-02-18T13:38:29;0.63;;;0.63;;
11191;SDS011;5652;48.406;10.820;2023-02-18T13:40:57;0.90;;;0.80;;
11191;SDS011;5652;48.406;10.820;2023-02-18T13:43:29;0.60;;;0.60;;
11191;SDS011;5652;48.406;10.820;2023-02-18T13:46:03;0.60;;;0.60;;
11191;SDS011;5652;48.406;10.820;2023-02-18T13:48:32;0.90;;;0.80;;
11191;SDS011;5652;48.406;10.820;2023-02-18T13:51:01;0.60;;;0.60;;
11191;SDS011;5652;48.406;10.820;2023-02-18T13:53:31;0.50;;;0.50;;
11191;SDS011;5652;48.406;10.820;2023-02-18T13:56:02;0.80;;;0.80;;
11191;SDS011;5652;48.406;10.820;2023-02-18T13:58:37;1.10;;;0.70;;
11191;SDS011;5652;48.406;10.820;2023-02-18T14:01:13;0.65;;;0.60;;
11191;SDS011;5652;48.406;10.820;2023-02-18T14:03:51;0.83;;;0.80;;
11191;SDS011;5652;48.406;10.820;2023-02-18T14:06:20;0.85;;;0.70;;
11191;SDS011;5652;48.406;10.820;2023-02-18T14:08:51;0.90;;;0.80;;
11191;SDS011;5652;48.406;10.820;2023-02-18T14:14:32;0.70;;;0.70;;
11191;SDS011;5652;48.406;10.820;2023-02-18T14:22:48;1.10;;;1.00;;
11191;SDS011;5652;48.406;10.820;2023-02-18T14:25:20;1.40;;;0.60;;
11191;SDS011;5652;48.406;10.820;2023-02-18T14:27:48;0.83;;;0.83;;
11191;SDS011;5652;48.406;10.820;2023-02-18T14:30:17;1.10;;;1.00;;
11191;SDS011;5652;48.406;10.820;2023-02-18T14:32:44;0.52;;;0.52;;
11191;SDS011;5652;48.406;10.820;2023-02-18T14:35:16;0.82;;;0.82;;
11191;SDS011;5652;48.406;10.820;2023-02-18T14:38:09;0.60;;;0.60;;
11191;SDS011;5652;48.406;10.820;2023-02-18T14:40:48;0.73;;;0.73;;
11191;SDS011;5652;48.406;10.820;2023-02-18T14:43:21;0.40;;;0.40;;
11191;SDS011;5652;48.406;10.820;2023-02-18T14:46:02;0.73;;;0.73;;
11191;SDS011;5652;48.406;10.820;2023-02-18T14:48:42;0.70;;;0.70;;
11191;SDS011;5652;48.406;10.820;2023-02-18T14:51:13;0.70;;;0.70;;
11191;SDS011;5652;48.406;10.820;2023-02-18T14:53:41;0.60;;;0.60;;
11191;SDS011;5652;48.406;10.820;2023-02-18T14:56:11;0.80;;;0.80;;
11191;SDS011;5652;48.406;10.820;2023-02-18T14:58:40;2.42;;;0.80;;
11191;SDS011;5652;48.406;10.820;2023-02-18T15:01:13;0.80;;;0.80;;
11191;SDS011;5652;48.406;10.820;2023-02-18T15:03:42;0.60;;;0.60;;
11191;SDS011;5652;48.406;10.820;2023-02-18T15:06:20;0.73;;;0.73;;
11191;SDS011;5652;48.406;10.820;2023-02-18T15:08:47;0.90;;;0.90;;
11191;SDS011;5652;48.406;10.820;2023-02-18T15:11:16;1.07;;;0.97;;
11191;SDS011;5652;48.406;10.820;2023-02-18T15:13:44;0.65;;;0.60;;
11191;SDS011;5652;48.406;10.820;2023-02-18T15:16:13;0.73;;;0.70;;
11191;SDS011;5652;48.406;10.820;2023-02-18T15:18:43;0.80;;;0.80;;
11191;SDS011;5652;48.406;10.820;2023-02-18T15:21:15;0.60;;;0.60;;
11191;SDS011;5652;48.406;10.820;2023-02-18T15:23:44;0.93;;;0.90;;
11191;SDS011;5652;48.406;10.820;2023-02-18T15:26:12;1.17;;;0.85;;
11191;SDS011;5652;48.406;10.820;2023-02-18T15:28:49;0.70;;;0.70;;